createdAt,value
2024-04-23T00:01:57.060Z,98076.33
2024-04-23T00:04:59.670Z,98069.52
2024-04-23T00:08:02.219Z,98069.02
2024-04-23T00:11:05.066Z,98067.67
2024-04-23T00:14:07.587Z,98063.80
2024-04-23T00:17:10.051Z,98059.39
2024-04-23T00:20:12.529Z,98054.60
2024-04-23T00:23:16.047Z,98053.70
2024-04-23T00:26:18.634Z,98051.92
2024-04-23T00:29:21.164Z,98058.26
2024-04-23T00:32:37.110Z,98061.30
2024-04-23T00:35:39.659Z,98063.41
2024-04-23T00:38:42.123Z,98060.45
2024-04-23T00:41:44.717Z,98056.21
2024-04-23T00:44:47.990Z,98054.02
2024-04-23T00:51:07.776Z,98049.19
2024-04-23T00:54:11.485Z,98048.59
2024-04-23T00:57:14.090Z,98049.63
2024-04-23T01:00:16.897Z,98047.07
2024-04-23T01:03:35.975Z,98043.89
2024-04-23T01:06:39.071Z,98041.73
2024-04-23T01:09:41.855Z,98036.91
2024-04-23T01:12:44.525Z,98033.70
2024-04-23T01:15:49.153Z,98033.46
2024-04-23T01:18:53.027Z,98028.05
2024-04-23T01:22:04.100Z,98032.15
2024-04-23T01:25:14.830Z,98029.98
2024-04-23T01:28:18.593Z,98026.84
2024-04-23T01:31:21.867Z,98027.48
2024-04-23T01:34:25.681Z,98023.21
2024-04-23T01:37:30.451Z,98020.83
2024-04-23T01:40:33.894Z,98017.70
2024-04-23T01:43:37.148Z,98017.12
2024-04-23T01:46:40.726Z,98010.84
2024-04-23T01:49:44.098Z,98004.91
2024-04-23T01:52:46.814Z,98002.66
2024-04-23T01:55:50.242Z,98000.14
2024-04-23T01:58:53.027Z,97997.52
2024-04-23T02:01:58.067Z,97997.45
2024-04-23T02:05:01.054Z,97998.43
2024-04-23T02:08:03.812Z,98000.33
2024-04-23T02:11:06.637Z,97995.88
2024-04-23T02:14:09.461Z,97995.27
2024-04-23T02:17:14.364Z,97988.36
2024-04-23T02:20:16.964Z,97985.17
2024-04-23T02:23:19.480Z,97984.61
2024-04-23T02:26:21.984Z,97977.50
2024-04-23T02:29:24.418Z,97972.48
2024-04-23T02:32:27.026Z,97963.77
2024-04-23T02:35:29.555Z,97962.92
2024-04-23T02:38:32.218Z,97963.38
2024-04-23T02:41:37.770Z,97964.33
2024-04-23T02:44:40.256Z,97962.80
2024-04-23T02:47:42.811Z,97965.59
2024-04-23T02:50:45.382Z,97961.80
2024-04-23T02:53:47.864Z,97964.39
2024-04-23T02:56:52.028Z,97965.48
2024-04-23T02:59:54.570Z,97966.77
2024-04-23T03:03:49.095Z,97962.52
2024-04-23T03:06:51.698Z,97961.84
2024-04-23T03:09:54.185Z,97964.54
2024-04-23T03:12:56.842Z,97963.69
2024-04-23T03:15:59.400Z,97958.64
2024-04-23T03:19:01.926Z,97963.34
2024-04-23T03:22:04.474Z,97964.18
2024-04-23T03:25:07.421Z,97966.67
2024-04-23T03:28:10.015Z,97964.65
2024-04-23T03:31:12.756Z,97963.55
2024-04-23T03:34:15.514Z,97957.83
2024-04-23T03:37:18.039Z,97958.36
2024-04-23T03:40:20.859Z,97955.66
2024-04-23T03:43:23.338Z,97951.89
2024-04-23T03:46:25.843Z,97948.91
2024-04-23T03:49:28.399Z,97944.83
2024-04-23T03:52:30.912Z,97947.08
2024-04-23T03:55:33.364Z,97946.70
2024-04-23T03:58:35.876Z,97950.02
2024-04-23T04:01:38.503Z,97948.21
2024-04-23T04:05:00.003Z,97944.92
2024-04-23T04:08:02.598Z,97946.88
2024-04-23T04:11:05.963Z,97947.75
2024-04-23T04:14:08.710Z,97950.35
2024-04-23T04:17:11.360Z,97949.83
2024-04-23T04:20:14.059Z,97945.65
2024-04-23T04:23:16.575Z,97946.27
2024-04-23T04:26:19.055Z,97945.96
2024-04-23T04:29:21.496Z,97949.89
2024-04-23T04:32:24.066Z,97941.52
2024-04-23T04:35:26.553Z,97941.69
2024-04-23T04:38:29.074Z,97933.54
2024-04-23T04:41:31.616Z,97931.55
2024-04-23T04:44:34.125Z,97926.80
2024-04-23T04:47:36.773Z,97926.29
2024-04-23T04:50:39.447Z,97927.98
2024-04-23T04:53:41.982Z,97927.05
2024-04-23T04:56:44.486Z,97924.68
2024-04-23T04:59:47.071Z,97918.92
2024-04-23T05:02:49.584Z,97919.85
2024-04-23T05:05:52.096Z,97917.39
2024-04-23T05:08:54.614Z,97914.73
2024-04-23T05:11:57.186Z,97910.52
2024-04-23T05:14:59.617Z,97911.80
2024-04-23T05:18:02.255Z,97907.91
2024-04-23T05:21:04.946Z,97910.86
2024-04-23T05:24:07.672Z,97909.73
2024-04-23T05:27:10.215Z,97909.73
2024-04-23T05:30:35.180Z,97910.61
2024-04-23T05:33:37.803Z,97909.00
2024-04-23T05:36:40.403Z,97909.98
2024-04-23T05:39:42.831Z,97905.12
2024-04-23T05:42:45.804Z,97902.30
2024-04-23T05:45:48.367Z,97900.73
2024-04-23T05:49:28.019Z,97898.81
2024-04-23T05:53:08.127Z,97893.00
2024-04-23T05:56:10.655Z,97890.88
2024-04-23T05:59:13.164Z,97894.29
2024-04-23T06:02:15.689Z,97895.00
2024-04-23T06:05:18.228Z,97892.98
2024-04-23T06:08:20.764Z,97894.61
2024-04-23T06:11:23.517Z,97891.96
2024-04-23T06:14:26.037Z,97892.40
2024-04-23T06:17:35.904Z,97895.80
2024-04-23T06:20:44.126Z,97897.02
2024-04-23T06:23:46.577Z,97898.92
2024-04-23T06:26:49.030Z,97899.48
2024-04-23T06:29:55.422Z,97895.98
2024-04-23T06:32:58.036Z,97895.64
2024-04-23T06:36:00.586Z,97894.26
2024-04-23T06:39:04.610Z,97895.21
2024-04-23T06:42:07.199Z,97894.27
2024-04-23T06:45:09.689Z,97895.33
2024-04-23T06:48:16.607Z,97899.08
2024-04-23T06:51:19.105Z,97901.98
2024-04-23T06:54:21.696Z,97898.92
2024-04-23T06:57:24.315Z,97901.35
2024-04-23T07:00:26.802Z,97904.30
2024-04-23T07:03:29.324Z,97898.33
2024-04-23T07:06:32.257Z,97894.25
2024-04-23T07:09:34.730Z,97894.65
2024-04-23T07:12:37.349Z,97894.98
2024-04-23T07:15:41.504Z,97890.84
2024-04-23T07:18:53.779Z,97891.84
2024-04-23T07:22:02.881Z,97882.71
2024-04-23T07:25:05.641Z,97883.55
2024-04-23T07:28:08.072Z,97875.73
2024-04-23T07:31:10.539Z,97875.11
2024-04-23T07:34:13.068Z,97873.89
2024-04-23T07:37:15.926Z,97874.60
2024-04-23T07:40:18.402Z,97870.83
2024-04-23T07:43:22.289Z,97871.91
2024-04-23T07:46:25.271Z,97868.90
2024-04-23T07:49:27.776Z,97872.90
2024-04-23T07:52:30.289Z,97868.36
2024-04-23T07:55:32.844Z,97878.91
2024-04-23T07:58:35.425Z,97875.25
2024-04-23T08:01:37.923Z,97869.66
2024-04-23T08:04:40.436Z,97862.92
2024-04-23T08:07:43.062Z,97856.53
2024-04-23T08:10:45.623Z,97856.61
2024-04-23T08:13:48.128Z,97844.75
2024-04-23T08:16:50.761Z,97839.83
2024-04-23T08:19:53.360Z,97830.41
2024-04-23T08:22:59.341Z,97829.66
2024-04-23T08:26:10.177Z,97820.88
2024-04-23T08:29:12.846Z,97814.98
2024-04-23T08:32:16.013Z,97816.23
2024-04-23T08:35:18.567Z,97816.17
2024-04-23T08:38:22.891Z,97811.29
2024-04-23T08:41:26.957Z,97804.70
2024-04-23T08:44:32.913Z,97807.36
2024-04-23T08:47:37.782Z,97804.70
2024-04-23T08:50:41.081Z,97801.86
2024-04-23T08:53:45.138Z,97798.81
2024-04-23T08:56:48.177Z,97791.20
2024-04-23T08:59:51.703Z,97796.13
2024-04-23T09:02:56.293Z,97795.64
2024-04-23T09:06:00.352Z,97792.50
2024-04-23T09:09:03.789Z,97789.20
2024-04-23T09:12:07.548Z,97790.90
2024-04-23T09:15:10.157Z,97784.09
2024-04-23T09:18:12.978Z,97780.33
2024-04-23T09:21:16.156Z,97782.84
2024-04-23T09:24:27.146Z,97780.14
2024-04-23T09:27:32.898Z,97778.02
2024-04-23T09:30:39.003Z,97769.82
2024-04-23T09:33:55.423Z,97769.41
2024-04-23T09:36:58.072Z,97767.08
2024-04-23T09:40:04.315Z,97758.91
2024-04-23T09:43:07.494Z,97747.86
2024-04-23T09:46:11.158Z,97747.13
2024-04-23T09:49:14.191Z,97749.94
2024-04-23T09:52:36.255Z,97745.16
2024-04-23T09:55:38.870Z,97740.98
2024-04-23T09:58:41.406Z,97740.76
2024-04-23T10:01:48.637Z,97737.35
2024-04-23T10:04:55.966Z,97730.07
2024-04-23T10:07:59.070Z,97725.79
2024-04-23T10:11:03.157Z,97723.50
2024-04-23T10:14:14.756Z,97715.67
2024-04-23T10:17:28.882Z,97717.60
2024-04-23T10:20:39.025Z,97725.02
2024-04-23T10:23:41.764Z,97704.98
2024-04-23T10:26:45.772Z,97708.70
2024-04-23T10:29:48.947Z,97700.48
2024-04-23T10:32:53.293Z,97700.81
2024-04-23T10:35:56.025Z,97697.56
2024-04-23T10:39:00.063Z,97686.39
2024-04-23T10:42:06.403Z,97680.27
2024-04-23T10:45:10.267Z,97675.87
2024-04-23T10:48:12.862Z,97667.91
2024-04-23T10:51:15.420Z,97659.81
2024-04-23T10:54:21.994Z,97663.52
2024-04-23T10:57:26.262Z,97658.39
2024-04-23T11:00:37.051Z,97654.20
2024-04-23T11:03:40.004Z,97648.94
2024-04-23T11:06:42.589Z,97644.93
2024-04-23T11:09:47.074Z,97649.41
2024-04-23T11:12:49.631Z,97647.54
2024-04-23T11:15:52.330Z,97641.58
2024-04-23T11:18:58.892Z,97633.91
2024-04-23T11:22:06.036Z,97624.55
2024-04-23T11:25:13.876Z,97609.00
2024-04-23T11:28:16.590Z,97612.91
2024-04-23T11:31:20.483Z,97618.48
2024-04-23T11:34:25.289Z,97606.51
2024-04-23T11:37:31.950Z,97596.65
2024-04-23T11:40:34.524Z,97593.35
2024-04-23T11:43:37.047Z,97584.70
2024-04-23T11:46:41.459Z,97577.23
2024-04-23T11:49:44.001Z,97572.08
2024-04-23T11:52:47.068Z,97560.83
2024-04-23T11:55:49.703Z,97555.82
2024-04-23T11:58:52.782Z,97560.00
2024-04-23T12:01:56.081Z,97553.77
2024-04-23T12:05:01.166Z,97551.25
2024-04-23T12:08:04.643Z,97551.02
2024-04-23T12:11:07.553Z,97542.58
2024-04-23T12:14:13.336Z,97540.23
2024-04-23T12:17:15.939Z,97533.83
2024-04-23T12:20:18.723Z,97527.88
2024-04-23T12:23:21.823Z,97523.27
2024-04-23T12:26:25.243Z,97524.23
2024-04-23T12:29:29.480Z,97518.65
2024-04-23T12:32:33.283Z,97514.73
2024-04-23T12:35:36.257Z,97507.91
2024-04-23T12:38:46.004Z,97503.97
2024-04-23T12:41:48.685Z,97500.35
2024-04-23T12:44:51.395Z,97497.27
2024-04-23T12:47:57.509Z,97489.58
2024-04-23T12:51:00.134Z,97490.71
2024-04-23T12:54:09.479Z,97490.82
2024-04-23T12:57:12.417Z,97487.23
2024-04-23T13:00:15.792Z,97481.48
2024-04-23T13:03:18.424Z,97469.77
2024-04-23T13:06:21.006Z,97462.41
2024-04-23T13:09:23.662Z,97456.69
2024-04-23T13:12:26.159Z,97455.38
2024-04-23T13:15:28.641Z,97444.39
2024-04-23T13:18:32.045Z,97435.99
2024-04-23T13:21:34.595Z,97439.23
2024-04-23T13:24:37.185Z,97435.90
2024-04-23T13:27:39.648Z,97427.08
2024-04-23T13:30:42.215Z,97416.82
2024-04-23T13:33:44.770Z,97404.02
2024-04-23T13:36:47.501Z,97399.63
2024-04-23T13:39:50.080Z,97399.00
2024-04-23T13:42:52.716Z,97398.05
2024-04-23T13:45:56.167Z,97394.21
2024-04-23T13:48:58.699Z,97386.21
2024-04-23T13:52:01.212Z,97384.26
2024-04-23T13:55:04.200Z,97389.98
2024-04-23T13:58:06.705Z,97383.31
2024-04-23T14:01:10.021Z,97378.66
2024-04-23T14:04:13.134Z,97372.29
2024-04-23T14:07:19.445Z,97373.02
2024-04-23T14:10:22.077Z,97367.70
2024-04-23T14:13:24.556Z,97359.90
2024-04-23T14:16:27.243Z,97361.95
2024-04-23T14:19:34.795Z,97357.38
2024-04-23T14:22:38.178Z,97359.03
2024-04-23T14:25:40.866Z,97357.87
2024-04-23T14:28:43.719Z,97355.63
2024-04-23T14:31:46.313Z,97352.84
2024-04-23T14:34:49.027Z,97359.66
2024-04-23T14:37:51.543Z,97349.00
2024-04-23T14:41:04.948Z,97350.20
2024-04-23T14:44:07.498Z,97353.79
2024-04-23T14:47:10.293Z,97345.17
2024-04-23T14:50:14.889Z,97344.76
2024-04-23T14:53:21.410Z,97337.85
2024-04-23T14:56:26.361Z,97337.11
2024-04-23T14:59:28.896Z,97330.14
2024-04-23T15:02:31.496Z,97323.31
2024-04-23T15:05:33.976Z,97327.77
2024-04-23T15:08:39.741Z,97320.77
2024-04-23T15:11:42.161Z,97316.70
2024-04-23T15:14:46.890Z,97310.64
2024-04-23T15:17:49.386Z,97303.10
2024-04-23T15:20:51.990Z,97301.35
2024-04-23T15:23:54.445Z,97307.32
2024-04-23T15:26:57.155Z,97308.33
2024-04-23T15:29:59.701Z,97303.93
2024-04-23T15:33:02.468Z,97297.77
2024-04-23T15:36:12.449Z,97293.42
2024-04-23T15:39:19.367Z,97288.88
2024-04-23T15:42:23.189Z,97290.16
2024-04-23T15:45:25.790Z,97284.05
2024-04-23T15:48:29.306Z,97276.60
2024-04-23T15:51:31.840Z,97267.77
2024-04-23T15:54:34.304Z,97262.48
2024-04-23T15:57:36.819Z,97251.19
2024-04-23T16:00:39.293Z,97242.16
2024-04-23T16:03:42.490Z,97239.11
2024-04-23T16:06:45.065Z,97237.83
2024-04-23T16:09:47.564Z,97233.39
2024-04-23T16:12:52.494Z,97238.89
2024-04-23T16:15:57.233Z,97233.51
2024-04-23T16:18:59.790Z,97237.30
2024-04-23T16:22:02.339Z,97233.10
2024-04-23T16:25:05.068Z,97228.13
2024-04-23T16:28:07.529Z,97217.92
2024-04-23T16:31:10.301Z,97217.36
2024-04-23T16:34:12.955Z,97215.27
2024-04-23T16:37:15.610Z,97209.42
2024-04-23T16:40:18.157Z,97205.90
2024-04-23T16:43:20.641Z,97203.08
2024-04-23T16:46:23.127Z,97203.88
2024-04-23T16:49:25.635Z,97198.98
2024-04-23T16:52:28.549Z,97206.57
2024-04-23T16:55:31.175Z,97203.08
2024-04-23T16:58:33.675Z,97202.70
2024-04-23T17:01:36.179Z,97200.58
2024-04-23T17:04:38.711Z,97205.36
2024-04-23T17:07:41.302Z,97206.41
2024-04-23T17:10:45.502Z,97204.04
2024-04-23T17:13:48.161Z,97201.84
2024-04-23T17:16:51.926Z,97199.42
2024-04-23T17:19:54.563Z,97197.80
2024-04-23T17:22:57.084Z,97192.75
2024-04-23T17:26:01.203Z,97186.96
2024-04-23T17:29:03.781Z,97189.96
2024-04-23T17:32:06.574Z,97194.36
2024-04-23T17:35:09.552Z,97193.70
2024-04-23T17:38:12.092Z,97193.04
2024-04-23T17:41:14.691Z,97188.06
2024-04-23T17:44:17.369Z,97183.05
2024-04-23T17:47:20.070Z,97186.41
2024-04-23T17:50:22.726Z,97179.60
2024-04-23T17:53:25.305Z,97176.23
2024-04-23T17:56:27.945Z,97165.36
2024-04-23T17:59:30.487Z,97160.42
2024-04-23T18:02:33.111Z,97157.48
2024-04-23T18:05:36.198Z,97161.79
2024-04-23T18:08:38.899Z,97163.94
2024-04-23T18:11:44.796Z,97162.59
2024-04-23T18:14:47.426Z,97161.27
2024-04-23T18:17:54.272Z,97159.05
2024-04-23T18:21:02.963Z,97155.48
2024-04-23T18:24:08.394Z,97158.59
2024-04-23T18:27:11.116Z,97168.77
2024-04-23T18:30:13.746Z,97167.30
2024-04-23T18:33:16.335Z,97165.41
2024-04-23T18:36:18.872Z,97165.03
2024-04-23T18:39:21.598Z,97160.79
2024-04-23T18:42:24.098Z,97158.29
2024-04-23T18:45:28.936Z,97149.91
2024-04-23T18:48:31.603Z,97144.77
2024-04-23T18:51:34.198Z,97144.87
2024-04-23T18:54:36.705Z,97139.56
2024-04-23T18:57:39.166Z,97139.70
2024-04-23T19:00:41.717Z,97137.81
2024-04-23T19:03:44.782Z,97138.46
2024-04-23T19:06:47.549Z,97133.95
2024-04-23T19:09:51.203Z,97133.67
2024-04-23T19:12:54.881Z,97138.20
2024-04-23T19:16:03.965Z,97142.95
2024-04-23T19:19:06.484Z,97143.97
2024-04-23T19:22:08.970Z,97141.71
2024-04-23T19:25:11.719Z,97135.98
2024-04-23T19:28:14.211Z,97131.01
2024-04-23T19:31:16.686Z,97129.80
2024-04-23T19:34:19.120Z,97124.74
2024-04-23T19:37:21.626Z,97119.64
2024-04-23T19:40:24.251Z,97114.55
2024-04-23T19:43:26.762Z,97107.59
2024-04-23T19:46:31.260Z,97097.08
2024-04-23T19:49:34.411Z,97096.52
2024-04-23T19:52:36.962Z,97092.69
2024-04-23T19:55:39.584Z,97089.48
2024-04-23T19:58:54.397Z,97089.36
2024-04-23T20:01:56.967Z,97083.00
2024-04-23T20:04:59.487Z,97075.17
2024-04-23T20:08:02.208Z,97069.36
2024-04-23T20:11:04.790Z,97064.79
2024-04-23T20:14:07.403Z,97066.20
2024-04-23T20:17:11.334Z,97056.78
2024-04-23T20:20:14.039Z,97053.84
2024-04-23T20:23:16.767Z,97053.21
2024-04-23T20:26:20.359Z,97053.52
2024-04-23T20:29:22.947Z,97053.30
2024-04-23T20:32:25.462Z,97054.17
2024-04-23T20:35:28.336Z,97051.98
2024-04-23T20:38:31.332Z,97047.35
2024-04-23T20:41:33.844Z,97046.37
2024-04-23T20:44:36.415Z,97041.14
2024-04-23T20:47:39.795Z,97040.88
2024-04-23T20:50:42.439Z,97038.67
2024-04-23T20:53:45.295Z,97034.19
2024-04-23T20:56:47.860Z,97030.52
2024-04-23T20:59:50.421Z,97026.48
2024-04-23T21:02:52.927Z,97019.09
2024-04-23T21:05:55.910Z,97025.13
2024-04-23T21:08:58.475Z,97025.88
2024-04-23T21:12:01.127Z,97026.73
2024-04-23T21:15:03.897Z,97030.09
2024-04-23T21:18:06.631Z,97029.41
2024-04-23T21:21:09.270Z,97032.30
2024-04-23T21:24:11.859Z,97026.37
2024-04-23T21:27:15.194Z,97023.23
2024-04-23T21:30:17.754Z,97024.64
2024-04-23T21:33:20.302Z,97025.43
2024-04-23T21:36:25.725Z,97017.80
2024-04-23T21:39:29.578Z,97014.44
2024-04-23T21:42:39.544Z,97013.45
2024-04-23T21:45:45.131Z,97003.73
2024-04-23T21:48:48.202Z,96996.30
2024-04-23T21:52:15.635Z,96987.27
2024-04-23T21:55:13.423Z,96986.81
2024-04-23T21:58:15.911Z,96975.89
2024-04-23T22:01:18.513Z,96978.30
2024-04-23T22:04:21.033Z,96974.55
2024-04-23T22:07:23.564Z,96968.46
2024-04-23T22:10:26.206Z,96966.05
2024-04-23T22:13:28.727Z,96961.48
2024-04-23T22:16:31.239Z,96951.83
2024-04-23T22:19:33.723Z,96950.28
2024-04-23T22:22:36.330Z,96944.86
2024-04-23T22:25:38.980Z,96941.44
2024-04-23T22:28:41.527Z,96937.58
2024-04-23T22:31:44.100Z,96940.65
2024-04-23T22:34:46.587Z,96939.69
2024-04-23T22:37:50.505Z,96932.95
2024-04-23T22:40:53.067Z,96929.52
2024-04-23T22:43:55.584Z,96922.07
2024-04-23T22:46:58.147Z,96915.90
2024-04-23T22:50:00.775Z,96910.77
2024-04-23T22:53:03.452Z,96907.02
2024-04-23T22:56:06.131Z,96900.84
2024-04-23T22:59:08.699Z,96897.63
2024-04-23T23:02:11.468Z,96895.78
2024-04-23T23:05:14.174Z,96896.40
2024-04-23T23:08:16.820Z,96897.59
2024-04-23T23:11:19.554Z,96888.30
2024-04-23T23:14:22.196Z,96881.93
2024-04-23T23:17:24.727Z,96879.91
2024-04-23T23:20:27.402Z,96883.83
2024-04-23T23:23:29.979Z,96881.88
2024-04-23T23:26:36.815Z,96878.18
2024-04-23T23:29:39.362Z,96878.29
2024-04-23T23:32:42.107Z,96871.82
2024-04-23T23:35:44.677Z,96866.09
2024-04-23T23:38:47.239Z,96860.23
2024-04-23T23:41:49.725Z,96853.66
2024-04-23T23:44:52.238Z,96848.83
2024-04-23T23:47:54.911Z,96844.73
2024-04-23T23:50:57.566Z,96846.55
2024-04-23T23:54:00.155Z,96850.63
2024-04-23T23:57:02.704Z,96844.56
